Time;durP1;ratioP1;P1;durP2;ratioP2;P2;SDS_P1;SDS_P2;PMS_P1;PMS_P2;Temp;Humidity;BMP_temperature;BMP_pressure;BME280_temperature;BME280_humidity;BME280_pressure;Samples;Min_cycle;Max_cycle;Signal;HPM_P1;HPM_P2
2021/12/19 00:00:41;;;;;;;;;34.25;30.25;;;;;10.12;65.52;102897.59;2053136;28;48258;-53
2021/12/19 00:03:35;;;;;;;;;37.00;32.00;;;;;10.12;65.39;102894.94;2061025;27;45337;-53
2021/12/19 00:09:18;;;;;;;;;34.80;27.40;;;;;10.12;65.35;102898.47;2052281;28;48339;-51
2021/12/19 00:10:19;;;;;;;;;33.25;28.50;;;;;10.12;65.39;102895.81;2053670;28;47521;-51
2021/12/19 00:11:21;;;;;;;;;31.75;29.50;;;;;10.12;65.35;102895.81;2049623;28;47206;-56
2021/12/19 00:12:22;;;;;;;;;31.20;29.60;;;;;10.11;65.65;102885.19;2053582;28;49239;-52
2021/12/19 00:13:27;;;;;;;;;27.75;25.25;;;;;10.10;65.40;102884.28;2054430;28;47104;-52
2021/12/19 00:14:28;;;;;;;;;31.60;30.80;;;;;10.11;65.48;102893.16;2063953;28;47575;-51
2021/12/19 00:15:28;;;;;;;;;29.50;26.25;;;;;10.10;65.50;102892.25;2054080;28;47201;-54
2021/12/19 00:16:29;;;;;;;;;23.25;18.00;;;;;10.09;65.33;102898.44;2054158;27;47591;-52
2021/12/19 00:17:30;;;;;;;;;26.00;24.25;;;;;10.08;65.34;102887.81;2052511;28;46532;-50
2021/12/19 00:18:30;;;;;;;;;35.00;31.25;;;;;10.06;65.45;102887.78;2059460;28;47533;-54
2021/12/19 00:19:30;;;;;;;;;33.00;29.75;;;;;10.06;65.72;102887.78;2054066;28;46997;-54
2021/12/19 00:20:32;;;;;;;;;38.60;32.80;;;;;10.06;65.63;102890.44;2046421;28;47991;-51
2021/12/19 00:21:32;;;;;;;;;22.25;21.00;;;;;10.06;65.36;102893.09;2050394;28;47388;-52
2021/12/19 00:22:33;;;;;;;;;30.75;27.50;;;;;10.06;65.55;102890.44;2049814;28;47443;-52
2021/12/19 00:23:33;;;;;;;;;31.25;26.25;;;;;10.05;65.52;102885.09;2051011;28;47908;-53
2021/12/19 00:24:34;;;;;;;;;32.00;28.00;;;;;10.06;65.52;102881.59;2049615;28;47488;-52
2021/12/19 00:25:34;;;;;;;;;36.25;30.00;;;;;10.05;65.60;102880.69;2045598;28;47074;-53
2021/12/19 00:26:35;;;;;;;;;36.25;32.00;;;;;10.05;65.42;102882.47;2053689;28;48117;-50
2021/12/19 00:27:35;;;;;;;;;40.25;35.50;;;;;10.03;65.66;102877.09;2051866;28;47200;-53
2021/12/19 00:28:36;;;;;;;;;31.75;29.25;;;;;10.03;65.60;102875.34;2049651;28;48246;-52
2021/12/19 00:29:36;;;;;;;;;35.60;31.60;;;;;10.05;65.73;102877.16;2052460;28;48238;-54
2021/12/19 00:30:37;;;;;;;;;40.50;32.50;;;;;10.05;65.87;102883.34;2053727;28;48393;-54
2021/12/19 00:31:38;;;;;;;;;32.50;26.00;;;;;10.05;65.75;102877.16;2054508;28;45301;-55
2021/12/19 00:32:40;;;;;;;;;37.00;31.75;;;;;10.06;65.67;102873.63;2053662;28;47126;-54
2021/12/19 00:33:41;;;;;;;;;28.00;25.80;;;;;10.06;65.41;102868.31;2053804;28;47370;-51
2021/12/19 00:34:42;;;;;;;;;28.60;25.80;;;;;10.05;65.61;102866.53;2049479;28;46579;-53
2021/12/19 00:35:42;;;;;;;;;30.75;29.00;;;;;10.04;65.77;102870.97;2050469;28;47175;-53
2021/12/19 00:36:43;;;;;;;;;34.50;27.25;;;;;10.04;65.60;102863.00;2053927;28;47770;-55
2021/12/19 00:37:44;;;;;;;;;27.80;25.80;;;;;10.03;65.59;102869.16;2049800;28;48715;-55
2021/12/19 00:38:45;;;;;;;;;29.25;26.50;;;;;10.03;65.49;102871.78;2052207;28;48368;-53
2021/12/19 00:39:47;;;;;;;;;30.40;30.00;;;;;10.02;65.33;102865.59;2048653;27;48195;-55
2021/12/19 00:40:48;;;;;;;;;29.80;28.60;;;;;10.02;65.33;102873.56;2046482;28;48025;-55
2021/12/19 00:41:52;;;;;;;;;42.60;36.80;;;;;10.02;65.32;102872.66;2054121;28;47296;-51
2021/12/19 00:43:03;;;;;;;;;27.00;25.00;;;;;10.02;65.60;102868.25;2053191;28;47157;-55
2021/12/19 00:44:11;;;;;;;;;31.80;29.00;;;;;10.03;65.46;102874.44;2055281;28;47128;-52
2021/12/19 00:45:28;;;;;;;;;30.60;27.00;;;;;10.02;65.60;102870.91;2047636;28;46994;-52
2021/12/19 00:46:28;;;;;;;;;35.20;31.60;;;;;10.01;65.59;102868.22;2046157;28;47222;-54
2021/12/19 00:47:29;;;;;;;;;28.50;27.25;;;;;10.00;65.75;102863.81;2048762;28;48557;-51
2021/12/19 00:48:34;;;;;;;;;27.75;27.00;;;;;10.01;65.68;102860.28;2050855;28;47345;-53
2021/12/19 00:49:35;;;;;;;;;26.60;26.60;;;;;9.99;65.74;102862.91;2055781;28;48226;-52
2021/12/19 00:50:37;;;;;;;;;32.20;29.40;;;;;9.99;65.71;102860.25;2053811;27;47041;-53
2021/12/19 00:51:38;;;;;;;;;26.60;23.60;;;;;9.99;65.64;102857.59;2059423;27;47117;-55
2021/12/19 00:52:39;;;;;;;;;35.25;30.00;;;;;9.98;65.75;102855.81;2068803;27;46001;-55
2021/12/19 00:53:39;;;;;;;;;32.40;29.20;;;;;9.98;65.65;102853.16;2076962;28;47404;-51
2021/12/19 00:54:40;;;;;;;;;30.75;29.50;;;;;9.98;65.80;102861.13;2054636;28;48401;-55
2021/12/19 00:55:40;;;;;;;;;35.50;31.50;;;;;9.98;65.71;102854.94;2053260;28;47310;-51
2021/12/19 00:56:43;;;;;;;;;33.00;28.50;;;;;9.97;65.74;102858.47;2054339;28;47189;-51
2021/12/19 00:57:44;;;;;;;;;28.60;28.60;;;;;9.98;65.66;102857.59;2051433;28;46085;-56
2021/12/19 00:58:45;;;;;;;;;28.20;24.20;;;;;9.97;65.56;102854.03;2054390;28;47354;-53
2021/12/19 00:59:46;;;;;;;;;25.75;22.25;;;;;9.96;65.84;102852.25;2048536;28;48074;-56
2021/12/19 01:00:46;;;;;;;;;23.50;17.00;;;;;9.97;65.94;102854.03;2049145;28;47350;-55
2021/12/19 01:01:48;;;;;;;;;27.25;27.25;;;;;9.97;65.86;102855.81;2053112;28;48605;-54
2021/12/19 01:02:51;;;;;;;;;30.20;27.00;;;;;9.95;65.86;102855.78;2050699;28;48332;-53
2021/12/19 01:03:52;;;;;;;;;30.20;28.40;;;;;9.95;65.81;102852.25;2053383;28;47589;-53
2021/12/19 01:04:52;;;;;;;;;29.50;24.50;;;;;9.95;65.85;102852.25;2052495;28;47558;-52
2021/12/19 01:05:53;;;;;;;;;30.50;26.00;;;;;9.94;65.74;102854.00;2054253;28;47234;-54
2021/12/19 01:06:57;;;;;;;;;28.00;17.75;;;;;9.95;65.87;102849.59;2054394;28;48013;-52
2021/12/19 01:07:58;;;;;;;;;25.20;23.80;;;;;9.94;66.11;102851.34;2053208;28;48463;-54
2021/12/19 01:08:58;;;;;;;;;25.00;24.50;;;;;9.95;65.93;102853.13;2051848;28;47488;-54
2021/12/19 01:09:59;;;;;;;;;27.75;25.50;;;;;9.95;65.76;102855.78;2053940;27;48154;-51
2021/12/19 01:10:59;;;;;;;;;24.75;24.75;;;;;9.94;65.97;102837.19;2054388;28;47903;-52
2021/12/19 01:11:59;;;;;;;;;26.00;24.75;;;;;9.95;65.97;102846.94;2049913;28;47426;-53
2021/12/19 01:13:02;;;;;;;;;29.50;23.75;;;;;9.94;65.90;102840.75;2053970;28;47104;-55
2021/12/19 01:14:03;;;;;;;;;30.00;26.80;;;;;9.95;65.94;102846.94;2045445;28;47092;-55
2021/12/19 01:15:05;;;;;;;;;29.20;24.60;;;;;9.94;66.10;102846.03;2052951;28;48156;-53
2021/12/19 01:16:06;;;;;;;;;35.00;27.00;;;;;9.95;65.90;102838.97;2053313;28;47322;-54
2021/12/19 01:17:08;;;;;;;;;32.25;28.00;;;;;9.95;65.86;102847.81;2053692;28;47574;-52
2021/12/19 01:18:09;;;;;;;;;31.80;27.60;;;;;9.94;66.05;102847.81;2049655;28;47441;-54
2021/12/19 01:19:09;;;;;;;;;29.75;25.75;;;;;9.95;65.91;102849.59;2049163;28;48257;-52
2021/12/19 01:20:15;;;;;;;;;29.75;24.75;;;;;9.95;65.71;102846.94;2045777;28;46184;-53
2021/12/19 01:21:16;;;;;;;;;26.20;23.40;;;;;9.95;65.84;102847.81;2051501;28;47535;-54
2021/12/19 01:22:17;;;;;;;;;28.25;25.25;;;;;9.97;66.01;102846.09;2052738;28;46026;-54
2021/12/19 01:23:17;;;;;;;;;24.75;20.50;;;;;9.97;66.04;102855.81;2051127;28;47444;-51
2021/12/19 01:24:18;;;;;;;;;25.25;22.00;;;;;9.97;66.13;102842.53;2052947;28;48472;-53
2021/12/19 01:25:19;;;;;;;;;32.00;27.25;;;;;9.96;65.71;102851.38;2046087;28;48286;-56
2021/12/19 01:26:19;;;;;;;;;28.00;26.80;;;;;9.96;65.99;102854.03;2051993;28;47281;-53
2021/12/19 01:27:20;;;;;;;;;23.00;21.50;;;;;9.95;66.03;102847.81;2052342;28;47482;-51
2021/12/19 01:28:20;;;;;;;;;21.75;21.75;;;;;9.95;66.08;102850.47;2053930;28;48013;-52
2021/12/19 01:29:21;;;;;;;;;25.50;24.00;;;;;9.95;65.96;102853.13;2054011;28;47760;-53
2021/12/19 01:30:21;;;;;;;;;22.25;22.25;;;;;9.95;65.97;102852.25;2053572;28;47351;-54
2021/12/19 01:31:22;;;;;;;;;27.00;23.50;;;;;9.94;65.92;102854.00;2054296;28;46661;-51
2021/12/19 01:32:22;;;;;;;;;26.50;24.50;;;;;9.95;65.86;102858.44;2053380;28;48155;-51
2021/12/19 01:33:23;;;;;;;;;21.50;17.75;;;;;9.95;66.06;102847.81;2049842;28;48187;-53
2021/12/19 01:34:23;;;;;;;;;30.75;25.00;;;;;9.94;65.89;102848.69;2051482;28;48287;-54
2021/12/19 01:35:24;;;;;;;;;21.50;21.50;;;;;9.95;65.99;102850.47;2048480;28;47180;-53
2021/12/19 01:36:24;;;;;;;;;23.00;21.25;;;;;9.95;65.72;102847.81;2047855;28;47692;-50
2021/12/19 01:37:25;;;;;;;;;19.25;17.50;;;;;9.95;66.07;102847.81;2051643;28;47335;-53
2021/12/19 01:38:26;;;;;;;;;21.50;20.25;;;;;9.95;65.92;102845.19;2050171;28;46744;-54
2021/12/19 01:39:26;;;;;;;;;24.00;21.25;;;;;9.96;66.00;102838.09;2053172;28;46971;-56
2021/12/19 01:40:27;;;;;;;;;25.50;23.75;;;;;9.95;66.03;102837.22;2053720;28;47754;-53
2021/12/19 01:41:28;;;;;;;;;24.20;20.40;;;;;9.94;65.91;102851.34;2053629;28;47684;-53
2021/12/19 01:42:33;;;;;;;;;21.25;19.25;;;;;9.95;65.87;102846.94;2052432;28;45436;-53
2021/12/19 01:43:34;;;;;;;;;20.40;18.60;;;;;9.94;65.95;102845.16;2052935;28;48579;-54
2021/12/19 01:44:35;;;;;;;;;31.00;26.00;;;;;9.94;65.86;102842.50;2053531;28;47210;-49
2021/12/19 01:45:39;;;;;;;;;24.50;23.50;;;;;9.93;66.05;102841.63;2049292;28;47092;-53
2021/12/19 01:46:40;;;;;;;;;26.60;24.20;;;;;9.91;65.90;102842.44;2052664;28;47520;-50
2021/12/19 01:47:41;;;;;;;;;17.60;15.20;;;;;9.91;66.04;102843.34;2050138;28;47943;-56
2021/12/19 01:48:42;;;;;;;;;22.50;19.75;;;;;9.90;66.08;102845.97;2051242;28;47346;-52
2021/12/19 01:49:42;;;;;;;;;18.75;15.50;;;;;9.90;65.85;102845.97;2048874;28;47206;-52
2021/12/19 01:50:42;;;;;;;;;24.75;20.50;;;;;9.91;66.11;102842.44;2047476;28;48181;-53
2021/12/19 01:51:43;;;;;;;;;26.75;22.00;;;;;9.90;66.20;102838.88;2053489;28;47984;-51
2021/12/19 01:52:44;;;;;;;;;20.75;19.50;;;;;9.90;66.33;102838.88;2049608;28;46971;-50
2021/12/19 01:53:45;;;;;;;;;23.80;21.40;;;;;9.89;66.11;102837.13;2051345;28;46221;-54
2021/12/19 01:54:46;;;;;;;;;26.50;23.75;;;;;9.90;66.01;102838.00;2054912;28;46895;-56
2021/12/19 01:55:47;;;;;;;;;29.60;25.20;;;;;9.89;66.06;102837.13;2052921;28;47119;-55
2021/12/19 01:56:48;;;;;;;;;21.80;20.80;;;;;9.89;66.48;102825.59;2049397;28;46966;-54
2021/12/19 01:57:49;;;;;;;;;26.25;24.25;;;;;9.89;66.22;102836.22;2050672;28;46762;-54
2021/12/19 01:58:49;;;;;;;;;24.00;22.60;;;;;9.89;66.32;102833.56;2055633;28;47866;-51
2021/12/19 01:59:50;;;;;;;;;17.00;17.00;;;;;9.89;65.93;102844.19;2050756;28;47229;-54
2021/12/19 02:00:56;;;;;;;;;21.60;20.20;;;;;9.89;66.21;102834.47;2053660;28;47332;-53
2021/12/19 02:01:57;;;;;;;;;21.20;19.20;;;;;9.88;66.07;102826.47;2053295;28;47754;-53
2021/12/19 02:02:58;;;;;;;;;26.00;19.50;;;;;9.88;66.15;102832.69;2053174;28;47240;-52
2021/12/19 02:03:58;;;;;;;;;20.75;19.25;;;;;9.88;66.01;102835.34;2055697;28;48131;-53
2021/12/19 02:04:59;;;;;;;;;24.75;19.25;;;;;9.86;66.23;102836.19;2054053;27;47060;-54
2021/12/19 02:05:59;;;;;;;;;24.00;21.00;;;;;9.85;66.11;102837.06;2053486;28;46970;-53
2021/12/19 02:07:01;;;;;;;;;18.50;17.50;;;;;9.84;66.00;102832.63;2048801;28;47444;-52
2021/12/19 02:08:03;;;;;;;;;21.60;21.20;;;;;9.83;66.00;102831.72;2051848;28;48164;-53
2021/12/19 02:09:07;;;;;;;;;20.20;19.00;;;;;9.83;66.34;102830.84;2048913;28;48611;-51
2021/12/19 02:10:09;;;;;;;;;23.40;18.20;;;;;9.82;66.30;102832.59;2051078;28;48507;-53
2021/12/19 02:11:09;;;;;;;;;20.60;20.40;;;;;9.81;66.08;102829.94;2058170;28;47312;-53
2021/12/19 02:12:10;;;;;;;;;24.25;23.00;;;;;9.78;66.10;102825.44;2051049;27;46962;-51
2021/12/19 02:13:13;;;;;;;;;22.60;19.60;;;;;9.77;66.23;102828.97;2051964;28;47288;-57
2021/12/19 02:14:13;;;;;;;;;19.40;18.00;;;;;9.78;66.40;102824.56;2056953;28;47689;-52
2021/12/19 02:15:20;;;;;;;;;23.25;23.25;;;;;9.76;66.31;102829.84;2053303;28;47275;-51
2021/12/19 02:16:21;;;;;;;;;28.80;22.20;;;;;9.76;66.27;102828.94;2057586;28;47620;-55
2021/12/19 02:17:21;;;;;;;;;22.00;19.25;;;;;9.76;66.51;102829.84;2053052;28;46767;-55
2021/12/19 02:18:23;;;;;;;;;23.50;21.00;;;;;9.77;66.41;102825.44;2051553;28;47301;-50
2021/12/19 02:19:24;;;;;;;;;22.80;18.60;;;;;9.77;66.49;102822.78;2056177;28;45324;-54
2021/12/19 02:20:32;;;;;;;;;22.20;20.40;;;;;9.78;66.31;102821.91;2049275;28;47198;-52
2021/12/19 02:21:32;;;;;;;;;22.20;19.80;;;;;9.76;66.49;102813.94;2045889;28;48658;-52
2021/12/19 02:22:33;;;;;;;;;19.25;17.00;;;;;9.76;66.71;102821.88;2049010;28;47069;-51
2021/12/19 02:23:34;;;;;;;;;16.40;15.40;;;;;9.74;66.60;102816.56;2052650;28;46103;-50
2021/12/19 02:24:35;;;;;;;;;14.75;14.25;;;;;9.74;66.66;102827.16;2053848;28;47861;-53
2021/12/19 02:25:35;;;;;;;;;22.50;17.50;;;;;9.76;66.51;102818.34;2059678;28;46859;-54
2021/12/19 02:26:39;;;;;;;;;18.50;16.50;;;;;9.76;66.58;102819.22;2051464;28;48170;-54
2021/12/19 02:27:40;;;;;;;;;19.80;17.40;;;;;9.77;66.59;102809.50;2048238;28;48353;-53
2021/12/19 02:28:41;;;;;;;;;24.75;19.25;;;;;9.78;66.53;102822.78;2053405;28;46332;-51
2021/12/19 02:29:42;;;;;;;;;19.60;17.40;;;;;9.78;66.47;102816.59;2053795;28;45523;-52
2021/12/19 02:30:43;;;;;;;;;22.00;21.25;;;;;9.78;66.61;102806.88;2057107;28;48296;-52
2021/12/19 02:31:45;;;;;;;;;19.50;18.50;;;;;9.79;66.42;102803.41;2051682;28;48064;-50
2021/12/19 02:32:45;;;;;;;;;23.20;17.00;;;;;9.79;66.54;102810.47;2053752;28;47321;-55
2021/12/19 02:34:01;;;;;;;;;19.00;18.75;;;;;9.80;66.40;102809.59;2052652;28;48074;-54
2021/12/19 02:35:10;;;;;;;;;28.40;24.20;;;;;9.78;66.50;102808.66;2068242;27;45447;-54
2021/12/19 02:37:56;;;;;;;;;21.40;17.80;;;;;9.77;66.58;102799.81;2049090;28;45393;-53
2021/12/19 02:48:29;;;;;;;;;18.60;17.00;;;;;9.68;66.74;102794.38;2053418;28;47599;-54
2021/12/19 02:49:31;;;;;;;;;22.50;17.50;;;;;9.67;66.65;102798.78;2051719;28;47148;-54
2021/12/19 02:50:32;;;;;;;;;20.80;20.00;;;;;9.66;66.62;102799.66;2053828;28;47998;-54
2021/12/19 02:51:34;;;;;;;;;21.50;20.00;;;;;9.65;66.51;102796.97;2059162;28;48030;-53
2021/12/19 02:52:35;;;;;;;;;23.00;21.80;;;;;9.65;66.79;102799.63;2052260;28;46453;-50
2021/12/19 02:53:41;;;;;;;;;30.50;22.50;;;;;9.64;66.89;102792.53;2049070;28;48263;-53
2021/12/19 02:54:42;;;;;;;;;22.20;21.60;;;;;9.63;66.71;102789.00;2057233;28;47692;-53
2021/12/19 02:55:43;;;;;;;;;22.60;16.20;;;;;9.63;66.91;102796.06;2054201;28;47385;-52
2021/12/19 02:56:44;;;;;;;;;25.25;18.25;;;;;9.64;66.89;102796.06;2053260;28;48427;-52
2021/12/19 02:57:47;;;;;;;;;17.80;17.40;;;;;9.65;66.96;102787.25;2053709;28;47457;-55
2021/12/19 02:58:47;;;;;;;;;23.60;22.60;;;;;9.66;66.79;102791.72;2049403;28;48184;-50
2021/12/19 02:59:48;;;;;;;;;22.50;20.75;;;;;9.67;66.61;102782.00;2056127;28;46034;-54
2021/12/19 03:00:50;;;;;;;;;28.25;25.50;;;;;9.67;66.62;102785.53;2049749;28;47686;-53
2021/12/19 03:01:51;;;;;;;;;23.00;21.40;;;;;9.67;66.62;102787.31;2048017;28;47601;-52
2021/12/19 03:02:51;;;;;;;;;19.50;16.50;;;;;9.67;66.87;102787.31;2053221;28;47234;-50
2021/12/19 03:03:52;;;;;;;;;20.50;20.25;;;;;9.66;66.68;102781.13;2052808;28;46840;-51
2021/12/19 03:04:58;;;;;;;;;22.75;20.50;;;;;9.67;66.75;102788.19;2049255;28;47093;-53
2021/12/19 03:05:59;;;;;;;;;19.60;16.20;;;;;9.66;66.74;102786.41;2046753;28;47246;-53
2021/12/19 03:06:59;;;;;;;;;20.75;18.25;;;;;9.67;66.83;102782.88;2051146;28;47032;-52
2021/12/19 03:08:03;;;;;;;;;26.25;22.75;;;;;9.68;66.85;102789.09;2052472;28;49007;-56
2021/12/19 03:09:08;;;;;;;;;21.00;19.80;;;;;9.68;66.74;102784.66;2053846;28;48339;-52
2021/12/19 03:13:05;;;;;;;;;24.00;20.60;;;;;9.68;66.89;102775.81;2061994;28;47233;-51
2021/12/19 03:18:06;;;;;;;;;24.60;22.60;;;;;9.69;66.87;102778.50;2050480;28;47283;-54
2021/12/19 03:19:06;;;;;;;;;22.20;20.00;;;;;9.69;66.71;102775.84;2053631;28;46874;-50
2021/12/19 03:20:08;;;;;;;;;23.50;20.75;;;;;9.70;66.79;102774.09;2053466;28;47205;-50
2021/12/19 03:21:12;;;;;;;;;19.40;15.80;;;;;9.70;66.71;102776.72;2053479;28;48488;-51
2021/12/19 03:22:13;;;;;;;;;21.80;19.80;;;;;9.70;66.57;102768.78;2056242;28;47458;-52
2021/12/19 03:23:14;;;;;;;;;23.75;21.25;;;;;9.70;66.72;102774.09;2052662;28;47411;-53
2021/12/19 03:24:14;;;;;;;;;16.20;15.40;;;;;9.70;66.82;102774.97;2054433;28;48332;-53
2021/12/19 03:25:15;;;;;;;;;21.00;18.50;;;;;9.70;66.27;102777.63;2048743;28;47642;-53
2021/12/19 03:26:15;;;;;;;;;19.75;16.75;;;;;9.71;66.75;102771.44;2053214;28;48425;-54
2021/12/19 03:27:16;;;;;;;;;23.25;21.00;;;;;9.71;66.73;102773.22;2051580;28;48651;-53
2021/12/19 03:28:17;;;;;;;;;22.50;18.50;;;;;9.71;66.53;102776.75;2049818;28;47191;-54
2021/12/19 03:29:17;;;;;;;;;18.80;18.00;;;;;9.72;66.79;102775.88;2052256;28;48375;-53
2021/12/19 03:30:19;;;;;;;;;24.75;22.25;;;;;9.71;66.81;102774.09;2054948;28;46246;-53
2021/12/19 03:31:19;;;;;;;;;24.00;21.40;;;;;9.72;66.64;102775.88;2048792;28;48676;-53
2021/12/19 03:32:19;;;;;;;;;30.00;24.25;;;;;9.73;66.58;102771.47;2052084;28;47961;-50
2021/12/19 03:33:20;;;;;;;;;25.25;21.25;;;;;9.74;66.72;102768.84;2050425;28;47207;-49
2021/12/19 03:34:21;;;;;;;;;24.25;22.75;;;;;9.76;66.72;102767.97;2049808;28;45930;-49
2021/12/19 03:35:23;;;;;;;;;24.75;20.00;;;;;9.77;66.64;102772.41;2049775;28;48334;-52
2021/12/19 03:36:24;;;;;;;;;20.80;19.80;;;;;9.76;66.69;102770.63;2058417;28;47126;-49
2021/12/19 03:37:24;;;;;;;;;23.75;19.00;;;;;9.76;66.65;102768.84;2054746;28;47800;-52
2021/12/19 03:38:25;;;;;;;;;23.00;19.00;;;;;9.76;66.68;102773.25;2052577;28;47535;-52
2021/12/19 03:39:33;;;;;;;;;20.40;19.00;;;;;9.76;66.35;102778.56;2049713;28;48306;-50
2021/12/19 03:40:35;;;;;;;;;24.80;21.60;;;;;9.75;66.43;102775.03;2054068;28;47617;-54
2021/12/19 03:41:36;;;;;;;;;25.40;23.60;;;;;9.74;66.51;102774.13;2053480;28;47236;-51
2021/12/19 03:42:48;;;;;;;;;21.50;20.75;;;;;9.72;66.51;102770.59;2056082;28;48171;-50
2021/12/19 03:43:49;;;;;;;;;23.00;18.20;;;;;9.72;66.42;102773.22;2060396;27;46310;-54
2021/12/19 03:44:49;;;;;;;;;20.60;20.60;;;;;9.72;66.27;102770.59;2061771;27;47306;-50
2021/12/19 03:45:50;;;;;;;;;23.50;23.25;;;;;9.71;66.62;102774.09;2053611;28;46161;-52
2021/12/19 03:46:51;;;;;;;;;19.50;18.50;;;;;9.71;66.19;102774.09;2051554;28;48255;-52
2021/12/19 03:47:52;;;;;;;;;20.25;19.25;;;;;9.71;66.41;102774.09;2054740;27;48001;-51
2021/12/19 03:48:52;;;;;;;;;24.25;20.00;;;;;9.71;66.48;102778.50;2054111;28;46995;-51
2021/12/19 03:49:52;;;;;;;;;22.25;20.25;;;;;9.70;66.39;102776.72;2052309;28;47995;-50
2021/12/19 03:50:53;;;;;;;;;20.50;18.50;;;;;9.68;66.32;102775.81;2053717;28;47414;-50
2021/12/19 03:51:53;;;;;;;;;27.25;21.75;;;;;9.68;66.06;102775.81;2052483;28;47003;-49
2021/12/19 03:52:55;;;;;;;;;20.25;18.75;;;;;9.66;66.58;102775.81;2049774;28;47077;-51
2021/12/19 03:53:55;;;;;;;;;18.80;18.40;;;;;9.64;66.41;102772.22;2051098;28;48187;-53
2021/12/19 03:54:57;;;;;;;;;19.25;16.75;;;;;9.64;66.47;102774.88;2051804;28;47040;-54
2021/12/19 03:55:57;;;;;;;;;18.40;16.00;;;;;9.64;66.53;102773.97;2054844;28;47092;-54
2021/12/19 03:56:58;;;;;;;;;19.50;19.50;;;;;9.63;66.45;102777.50;2052258;28;47715;-51
2021/12/19 03:57:59;;;;;;;;;14.00;12.25;;;;;9.62;66.59;102771.31;2053807;28;47410;-56
2021/12/19 03:58:59;;;;;;;;;25.20;19.80;;;;;9.61;66.61;102780.13;2054388;28;46861;-54
2021/12/19 04:00:01;;;;;;;;;10.75;9.00;;;;;9.60;66.74;102767.75;2054075;28;47334;-53
2021/12/19 04:01:05;;;;;;;;;21.40;17.20;;;;;9.60;66.62;102772.16;2056927;27;47266;-54
2021/12/19 04:02:05;;;;;;;;;23.60;17.80;;;;;9.60;66.59;102773.03;2057401;28;48853;-52
2021/12/19 04:03:09;;;;;;;;;20.25;16.75;;;;;9.59;66.75;102771.25;2054893;28;47261;-52
2021/12/19 04:04:09;;;;;;;;;22.80;17.40;;;;;9.59;66.52;102767.72;2053904;28;48311;-52
2021/12/19 04:05:10;;;;;;;;;27.00;20.75;;;;;9.60;66.54;102769.50;2054431;28;47196;-53
2021/12/19 04:06:11;;;;;;;;;18.50;17.00;;;;;9.60;66.57;102767.75;2056004;28;47383;-54
2021/12/19 04:07:12;;;;;;;;;16.50;16.00;;;;;9.60;66.74;102765.09;2050302;28;47599;-54
2021/12/19 04:08:12;;;;;;;;;22.20;17.20;;;;;9.60;66.49;102769.50;2053298;28;47154;-51
2021/12/19 04:09:13;;;;;;;;;21.00;14.50;;;;;9.59;66.44;102768.63;2052991;28;45876;-53
2021/12/19 04:10:14;;;;;;;;;18.75;16.75;;;;;9.58;66.61;102766.84;2053107;28;46285;-55
2021/12/19 04:11:14;;;;;;;;;21.20;17.40;;;;;9.59;66.50;102767.72;2058662;28;47331;-53
2021/12/19 04:12:15;;;;;;;;;18.75;18.75;;;;;9.59;66.63;102765.06;2053572;28;47124;-53
2021/12/19 04:13:17;;;;;;;;;18.80;18.00;;;;;9.59;66.58;102763.31;2055883;28;47893;-53
2021/12/19 04:14:17;;;;;;;;;17.00;16.20;;;;;9.60;66.68;102767.75;2050400;28;47231;-52
2021/12/19 04:15:18;;;;;;;;;23.50;19.75;;;;;9.59;66.81;102762.44;2050100;28;47446;-54
2021/12/19 04:16:18;;;;;;;;;18.75;17.50;;;;;9.59;66.62;102760.66;2051461;28;47071;-50
2021/12/19 04:17:20;;;;;;;;;16.00;15.20;;;;;9.58;66.58;102758.00;2052356;28;47511;-52
2021/12/19 04:18:21;;;;;;;;;25.20;21.60;;;;;9.59;66.89;102757.13;2055736;28;48331;-53
2021/12/19 04:19:22;;;;;;;;;18.25;13.75;;;;;9.59;66.96;102760.66;2050834;28;47799;-52
2021/12/19 04:20:22;;;;;;;;;21.50;18.00;;;;;9.59;66.85;102760.66;2047301;28;47453;-53
2021/12/19 04:21:23;;;;;;;;;20.25;14.75;;;;;9.60;66.71;102753.59;2053771;28;47262;-53
2021/12/19 04:22:23;;;;;;;;;15.25;15.25;;;;;9.60;66.85;102757.13;2046960;28;47137;-50
2021/12/19 04:23:24;;;;;;;;;17.00;17.00;;;;;9.60;66.71;102756.25;2050240;28;48385;-51
2021/12/19 04:24:24;;;;;;;;;20.00;16.00;;;;;9.61;66.96;102761.56;2053314;28;48493;-52
2021/12/19 04:25:24;;;;;;;;;18.50;18.50;;;;;9.61;66.66;102755.38;2053305;28;48056;-53
2021/12/19 04:26:25;;;;;;;;;21.75;18.00;;;;;9.60;66.99;102756.25;2051689;28;45502;-51
2021/12/19 04:27:25;;;;;;;;;18.25;17.75;;;;;9.60;66.77;102751.84;2052754;28;47913;-53
2021/12/19 04:28:26;;;;;;;;;20.25;16.25;;;;;9.61;66.92;102752.72;2048877;28;46938;-52
2021/12/19 04:29:26;;;;;;;;;19.25;15.25;;;;;9.63;67.12;102754.53;2055459;28;47153;-55
2021/12/19 04:30:27;;;;;;;;;16.00;14.25;;;;;9.63;66.99;102757.19;2057789;28;47195;-54
2021/12/19 04:31:28;;;;;;;;;22.00;18.25;;;;;9.64;66.92;102755.41;2047815;28;47135;-53
2021/12/19 04:32:33;;;;;;;;;19.75;16.75;;;;;9.65;66.81;102762.50;2051051;28;47368;-55
2021/12/19 04:33:36;;;;;;;;;20.80;19.60;;;;;9.66;67.01;102753.72;2055052;28;48460;-51
2021/12/19 04:34:36;;;;;;;;;20.00;17.60;;;;;9.64;66.97;102753.66;2058070;28;47409;-51
2021/12/19 04:35:44;;;;;;;;;23.00;19.00;;;;;9.65;66.86;102747.47;2052350;28;47088;-53
2021/12/19 04:36:49;;;;;;;;;18.20;15.80;;;;;9.65;67.17;102746.59;2049882;28;47041;-53
2021/12/19 04:40:11;;;;;;;;;20.60;17.20;;;;;9.67;67.00;102744.88;2049322;28;48197;-54
2021/12/19 04:44:33;;;;;;;;;13.40;13.40;;;;;9.66;67.00;102730.75;2057742;28;47481;-50
2021/12/19 04:56:49;;;;;;;;;15.75;14.00;;;;;9.64;66.97;102737.75;2050734;28;48200;-51
2021/12/19 04:57:58;;;;;;;;;13.60;12.00;;;;;9.64;66.83;102729.81;2050988;28;48792;-52
2021/12/19 05:00:16;;;;;;;;;14.20;10.00;;;;;9.63;66.63;102730.66;2048683;27;47326;-53
2021/12/19 05:02:00;;;;;;;;;13.40;13.00;;;;;9.64;66.70;102729.81;2050863;28;47618;-53
2021/12/19 05:02:51;;;;;;;;;13.60;13.40;;;;;9.62;66.67;102731.53;2048228;28;48601;-55
2021/12/19 05:14:36;;;;;;;;;14.60;12.80;;;;;9.59;66.86;102725.31;2082648;28;47267;-54
2021/12/19 05:15:37;;;;;;;;;15.80;13.60;;;;;9.59;67.05;102725.31;2086560;28;47218;-52
2021/12/19 05:16:41;;;;;;;;;13.50;12.75;;;;;9.59;67.06;102722.66;2086655;28;46869;-54
2021/12/19 05:17:41;;;;;;;;;12.75;11.75;;;;;9.59;67.07;102720.00;2083121;28;46325;-55
2021/12/19 05:18:44;;;;;;;;;19.00;17.25;;;;;9.60;67.08;102724.44;2073123;28;45713;-55
2021/12/19 05:19:51;;;;;;;;;16.25;15.00;;;;;9.61;66.99;102720.91;2051234;28;48427;-54
2021/12/19 05:20:56;;;;;;;;;15.40;14.40;;;;;9.63;67.11;102721.81;2054965;28;48043;-53
2021/12/19 05:22:01;;;;;;;;;14.25;13.25;;;;;9.62;67.03;102728.00;2051274;28;48037;-54
2021/12/19 05:23:10;;;;;;;;;15.40;12.00;;;;;9.62;66.82;102725.34;2052946;28;46346;-53
2021/12/19 05:25:18;;;;;;;;;21.40;17.80;;;;;9.63;67.20;102727.13;2051456;28;47883;-53
2021/12/19 05:26:19;;;;;;;;;12.80;11.40;;;;;9.64;67.47;102719.19;2047181;28;46317;-53
2021/12/19 05:27:19;;;;;;;;;18.75;15.00;;;;;9.65;67.01;102720.09;2046918;28;46979;-50
2021/12/19 05:28:19;;;;;;;;;16.50;15.00;;;;;9.64;67.04;102720.97;2052792;27;48013;-54
2021/12/19 05:29:20;;;;;;;;;16.00;15.00;;;;;9.63;67.22;102719.19;2047711;28;47298;-54
2021/12/19 05:30:21;;;;;;;;;14.00;14.00;;;;;9.64;67.38;102720.97;2052735;28;46944;-51
2021/12/19 05:31:22;;;;;;;;;14.60;14.40;;;;;9.65;67.15;102720.09;2051862;28;47642;-53
2021/12/19 05:32:22;;;;;;;;;17.25;15.75;;;;;9.65;67.08;102714.78;2052293;28;47250;-53
2021/12/19 05:33:23;;;;;;;;;19.00;14.75;;;;;9.65;67.36;102720.97;2052213;28;48093;-53
2021/12/19 05:34:24;;;;;;;;;16.33;16.00;;;;;9.64;67.16;102716.53;2051823;28;46177;-52
2021/12/19 05:45:59;;;;;;;;;14.25;13.50;;;;;9.57;66.74;102721.75;2052284;28;48025;-49
2021/12/19 05:47:00;;;;;;;;;20.00;15.50;;;;;9.56;66.92;102720.88;2053681;28;47384;-50
2021/12/19 05:48:01;;;;;;;;;16.40;14.40;;;;;9.55;66.94;102721.75;2051785;28;46994;-51
2021/12/19 05:49:04;;;;;;;;;14.00;14.00;;;;;9.56;66.95;102722.63;2047729;28;46775;-52